Flight Track Log - Related Links

Times and Time Zones

All times are in EST time to prevent confusion due to time zone crossing. See the N559LC flight status page for this flight to view local times or setup timezone preferences in your user account.

Time Position Orientation Groundspeed Altitude Reporting Facility
EST Latitude Longitude Course Direction KTS MPH feet Rate Location/Type
Tue 08:43:33 AM 42.6636 -83.4378 260° West 161 185 2,200  Level Cleveland Center
Tue 08:44:28 AM 42.6539 -83.5103 260° West 232 267 3,100 443 Climbing Cleveland Center
Tue 08:45:35 AM 42.6417 -83.6108 261° West 244 281 3,100  Level Cleveland Center
Tue 08:46:31 AM 42.6392 -83.6928 268° West 240 276 3,100 1,850 Level Cleveland Center
Tue 08:47:22 AM 42.6944 -83.7183 341° North 275 316 6,400 3,664 Climbing Cleveland Center
Tue 08:48:24 AM 42.7622 -83.7258 355° North 248 285 10,000 1,742 Climbing Cleveland Center
Tue 08:49:26 AM 42.8458 -83.7342 356° North 287 330 10,000 -145 Level Cleveland Center
Tue 08:50:28 AM 42.9364 -83.7442 355° North 304 350 9,700 -968 Descending Cleveland Center
Tue 08:51:30 AM 42.9819 -83.8061 315° West 262 302 8,000 -1,784 Descending Cleveland Center
Tue 08:52:19 AM 42.9950 -83.8825 283° West 258 297 6,400 -1,839 Descending Cleveland Center
Tue 08:52:32 AM 42.9881 -83.8958 235° Southwest 261 300 6,100 -209 Descending Cleveland Center
Tue 08:53:45 AM 42.9061 -83.8661 165° South 293 337 6,100 -48 Level Cleveland Center
Tue 08:54:36 AM 42.8678 -83.7914 125° Southeast 283 326 6,000  Descending Cleveland Center
Tue 08:54:52 AM 42.8553 -83.7703 129° Southeast 285 328 6,100  Climbing Cleveland Center
Tue 08:55:38 AM 42.8122 -83.7194 139° Southeast 283 326 6,000  Descending Cleveland Center
Tue 08:55:48 AM 42.7972 -83.7103 156° South 289 333 6,100  Climbing Cleveland Center
Tue 08:56:40 AM 42.7286 -83.7047 177° South 285 328 6,000  Descending Cleveland Center
Tue 08:56:49 AM 42.7178 -83.7072 190° South 285 328 6,100 97 Climbing Cleveland Center
Tue 08:57:42 AM 42.6506 -83.7081 181° South 287 330 6,100  Level Cleveland Center
Tue 08:57:56 AM 42.6275 -83.7081 180° South 286 329 6,100  Level Cleveland Center
Tue 08:58:44 AM 42.5706 -83.7100 181° South 288 331 6,100  Level Cleveland Center
Tue 08:58:58 AM 42.5475 -83.7133 186° South 285 328 6,100 -97 Level Cleveland Center
Tue 08:59:46 AM 42.4917 -83.7050 174° South 288 331 6,000  Descending Cleveland Center
Tue 08:59:59 AM 42.4650 -83.6953 165° South 290 334 6,100  Climbing Cleveland Center
Tue 09:00:48 AM 42.4164 -83.6731 161° South 290 334 6,000  Descending Cleveland Center
Tue 09:01:00 AM 42.3881 -83.6614 163° South 288 331 6,100  Climbing Cleveland Center
Tue 09:01:50 AM 42.3289 -83.6256 156° South 294 338 6,000  Descending Cleveland Center
Tue 09:01:55 AM 42.3203 -83.6178 146° Southeast 290 334 6,100  Climbing Cleveland Center
Tue 09:02:52 AM 42.2758 -83.5564 134° Southeast 293 337 6,000 -387 Descending Cleveland Center
Tue 09:02:57 AM 42.2636 -83.5417 138° Southeast 278 320 5,700 -871 Descending Cleveland Center
Tue 09:03:54 AM 42.2264 -83.4744 127° Southeast 280 322 5,100 -590 Descending Cleveland Center
Tue 09:03:58 AM 42.2178 -83.4589 127° Southeast 282 325 5,100  Level Cleveland Center
Tue 09:04:56 AM 42.1792 -83.3883 126° Southeast 282 325 5,100  Level Cleveland Center
Tue 09:04:59 AM 42.1683 -83.3675 125° Southeast 285 328 5,100 -97 Level Cleveland Center
Tue 09:05:58 AM 42.1122 -83.3067 141° Southeast 285 328 5,000  Descending Cleveland Center
Tue 09:06:00 AM 42.1081 -83.3056 169° South 291 335 5,100 103 Climbing Cleveland Center
Tue 09:06:56 AM 42.0369 -83.3067 181° South 280 322 5,100 -100 Level Cleveland Center
Tue 09:07:00 AM 42.0356 -83.3072 197° South 285 328 5,000 -455 Descending Cleveland Center
Tue 09:08:02 AM 41.9775 -83.3464 207° Southwest 244 281 4,600 -458 Descending Cleveland Center
Tue 09:08:58 AM 41.9578 -83.4053 246° West 171 197 4,100 -581 Descending Cleveland Center
Tue 09:09:04 AM 41.9578 -83.4053 246° West 197 227 4,000  Descending Cleveland Center
Tue 09:10:05 AM 41.9931 -83.4383 325° Northwest 175 201 4,100 97 Climbing Cleveland Center
Tue 09:10:06 AM 41.9861 -83.4400 190° South 182 209 4,100  Level Cleveland Center
Tue 09:11:00 AM 42.0353 -83.4331 North 163 188 4,100  Level Cleveland Center
Tue 09:11:09 AM 42.0331 -83.4331 180° South 173 199 4,100 -338 Level Cleveland Center
Tue 09:12:11 AM 42.0858 -83.4319 North 162 186 3,700 -684 Descending Cleveland Center
Tue 09:13:03 AM 42.1169 -83.4081 30° Northeast 125 144 2,800 -968 Descending Cleveland Center
Tue 09:13:13 AM 42.1208 -83.4061 20° North 154 177 2,700 -982 Descending Cleveland Center
Tue 09:13:58 AM 42.1458 -83.3867 30° Northeast 129 148 1,900 -871 Descending Cleveland Center
Tue 09:14:15 AM 42.1525 -83.3833 20° North 139 160 1,800 -787 Descending Cleveland Center
Tue 09:14:59 AM 42.1792 -83.3633 29° Northeast 129 148 1,100 -774 Descending Cleveland Center
Tue 09:15:17 AM 42.1844 -83.3606 21° North 134 154 1,000 -150 Descending Cleveland Center
Tue 09:16:19 AM 42.2158 -83.3383 28° Northeast 133 153 900 -97 Descending Cleveland Center

Login

Don't have an account? Register now (free) for customized features, flight alerts, and more!